Time;durP1;ratioP1;P1;durP2;ratioP2;P2;SDS_P1;SDS_P2;PMS_P1;PMS_P2;Temp;Humidity;BMP_temperature;BMP_pressure;BME280_temperature;BME280_humidity;BME280_pressure;Samples;Min_cycle;Max_cycle;Signal;HPM_P1;HPM_P2
2022/08/07 00:00:55;;;;;;;;;;;;;;;17.25;47.71;102571.53;5085213;28;20437;-88
2022/08/07 00:03:21;;;;;;;;;;;;;;;17.19;47.51;102560.22;5081128;28;19916;-88
2022/08/07 00:05:47;;;;;;;;;;;;;;;17.12;47.14;102562.28;5083125;28;19924;-88
2022/08/07 00:08:12;;;;;;;;;;;;;;;17.10;46.55;102561.44;5082436;28;19974;-88
2022/08/07 00:10:37;;;;;;;;;;;;;;;17.11;46.49;102556.97;5081346;28;19922;-88
2022/08/07 00:13:03;;;;;;;;;;;;;;;17.11;46.85;102557.81;5077538;28;20007;-87
2022/08/07 00:15:29;;;;;;;;;;;;;;;17.14;49.10;102552.38;5074452;28;20401;-88
2022/08/07 00:17:55;;;;;;;;;;;;;;;17.14;48.80;102556.84;5078156;28;19920;-88
2022/08/07 00:20:20;;;;;;;;;;;;;;;16.94;47.96;102547.84;5088362;28;19916;-87
2022/08/07 00:22:45;;;;;;;;;;;;;;;16.90;47.15;102543.53;5086535;28;19923;-87
2022/08/07 00:25:10;;;;;;;;;;;;;;;16.89;47.74;102544.47;5085896;28;19916;-87
2022/08/07 00:27:36;;;;;;;;;;;;;;;16.87;47.70;102537.44;5087564;28;19978;-87
2022/08/07 00:30:02;;;;;;;;;;;;;;;16.76;47.63;102533.41;5086825;28;19963;-88
2022/08/07 00:32:27;;;;;;;;;;;;;;;16.70;48.16;102533.59;5086226;28;19924;-87
2022/08/07 00:34:52;;;;;;;;;;;;;;;16.68;49.61;102530.09;5085663;28;20065;-88
2022/08/07 00:37:18;;;;;;;;;;;;;;;16.61;48.99;102528.63;5088819;28;20332;-87
2022/08/07 00:39:43;;;;;;;;;;;;;;;16.55;48.90;102526.16;5088135;28;20239;-87
2022/08/07 00:42:08;;;;;;;;;;;;;;;16.42;48.62;102525.78;5083144;28;19955;-87
2022/08/07 00:44:34;;;;;;;;;;;;;;;16.38;48.28;102520.63;5084622;28;19920;-87
2022/08/07 00:47:00;;;;;;;;;;;;;;;16.38;48.51;102521.47;5087163;28;19922;-88
2022/08/07 00:49:25;;;;;;;;;;;;;;;16.41;48.54;102517.81;5082551;28;20376;-88
2022/08/07 00:51:50;;;;;;;;;;;;;;;16.40;48.71;102527.63;5086305;28;19916;-88
2022/08/07 00:54:16;;;;;;;;;;;;;;;16.41;50.04;102510.66;5085271;28;19920;-88
2022/08/07 00:56:41;;;;;;;;;;;;;;;16.43;49.09;102518.66;5060686;28;19923;-88
2022/08/07 00:59:06;;;;;;;;;;;;;;;16.42;48.77;102525.78;5059569;28;19916;-87
2022/08/07 01:01:32;;;;;;;;;;;;;;;16.36;48.81;102519.78;5075940;28;19923;-87
2022/08/07 01:03:57;;;;;;;;;;;;;;;16.26;48.99;102512.13;5061536;28;20039;-87
2022/08/07 01:06:23;;;;;;;;;;;;;;;16.20;49.26;102507.03;5077621;28;19920;-87
2022/08/07 01:08:49;;;;;;;;;;;;;;;16.19;49.29;102512.44;5059993;28;19956;-88
2022/08/07 01:11:15;;;;;;;;;;;;;;;16.22;49.99;102505.16;5079792;28;20087;-88
2022/08/07 01:13:41;;;;;;;;;;;;;;;16.27;48.93;102516.56;5083113;28;19932;-88
2022/08/07 01:16:08;;;;;;;;;;;;;;;16.24;49.13;102513.13;5088921;28;19978;-88
2022/08/07 01:18:33;;;;;;;;;;;;;;;16.17;51.09;102508.94;5082683;28;19917;-88
2022/08/07 01:21:01;;;;;;;;;;;;;;;16.05;50.98;102510.25;5085955;28;19958;-88
2022/08/07 01:23:28;;;;;;;;;;;;;;;15.88;50.48;102505.53;5079448;28;20395;-87
2022/08/07 01:25:53;;;;;;;;;;;;;;;15.83;49.70;102510.16;5086874;28;20450;-88
2022/08/07 01:28:18;;;;;;;;;;;;;;;15.82;50.15;102495.09;5085027;28;20003;-88
2022/08/07 01:30:45;;;;;;;;;;;;;;;15.81;49.91;102496.88;5066472;28;19924;-88
2022/08/07 01:33:10;;;;;;;;;;;;;;;15.82;49.66;102493.28;5079368;28;19924;-87
2022/08/07 01:35:36;;;;;;;;;;;;;;;15.79;51.39;102500.50;5080743;28;20256;-87
2022/08/07 01:38:01;;;;;;;;;;;;;;;15.73;51.36;102498.06;5073043;28;19916;-88
2022/08/07 01:40:27;;;;;;;;;;;;;;;15.71;50.75;102499.91;5064612;28;20477;-88
2022/08/07 01:42:52;;;;;;;;;;;;;;;15.76;50.78;102487.28;5084654;28;20390;-87
2022/08/07 01:45:20;;;;;;;;;;;;;;;15.74;49.41;102489.16;5070290;28;19943;-88
2022/08/07 01:47:45;;;;;;;;;;;;;;;15.68;50.44;102484.91;5077876;28;19982;-88
2022/08/07 01:50:10;;;;;;;;;;;;;;;15.64;50.00;102488.59;5077459;28;20398;-88
2022/08/07 01:52:38;;;;;;;;;;;;;;;15.60;50.40;102489.59;5079180;28;19928;-88
2022/08/07 01:55:03;;;;;;;;;;;;;;;15.54;50.41;102487.16;5064097;28;20321;-87
2022/08/07 01:57:33;;;;;;;;;;;;;;;15.42;50.93;102493.75;5068331;28;19976;-88
2022/08/07 02:00:04;;;;;;;;;;;;;;;15.38;50.96;102486.78;5087197;28;20187;-88
2022/08/07 02:02:32;;;;;;;;;;;;;;;15.40;51.72;102482.28;5084204;28;19997;-88
2022/08/07 02:05:09;;;;;;;;;;;;;;;15.39;51.07;102483.22;5080278;28;20519;-88
2022/08/07 02:07:40;;;;;;;;;;;;;;;15.39;51.34;102477.00;5084031;28;20375;-87
2022/08/07 02:10:06;;;;;;;;;;;;;;;15.37;51.21;102478.84;5084184;28;19916;-88
2022/08/07 02:12:32;;;;;;;;;;;;;;;15.14;52.24;102488.47;5085044;28;19916;-87
2022/08/07 02:14:59;;;;;;;;;;;;;;;14.98;52.13;102487.25;5075273;28;19920;-87
2022/08/07 02:17:25;;;;;;;;;;;;;;;14.99;52.30;102489.84;5084695;28;19969;-88
2022/08/07 02:19:52;;;;;;;;;;;;;;;15.04;52.04;102487.91;5074963;28;19920;-87
2022/08/07 02:22:20;;;;;;;;;;;;;;;15.09;52.13;102482.44;5086604;28;19969;-87
2022/08/07 02:24:47;;;;;;;;;;;;;;;15.14;52.01;102474.28;5084006;28;19995;-87
2022/08/07 02:27:14;;;;;;;;;;;;;;;15.13;52.14;102477.88;5084396;28;19923;-88
2022/08/07 02:29:40;;;;;;;;;;;;;;;15.07;53.31;102480.75;5081131;28;20432;-88
2022/08/07 02:32:07;;;;;;;;;;;;;;;15.01;51.83;102476.47;5087645;28;20367;-87
2022/08/07 02:34:33;;;;;;;;;;;;;;;14.98;52.17;102480.13;5088595;28;19931;-87
2022/08/07 02:37:00;;;;;;;;;;;;;;;14.93;52.42;102478.53;5077553;28;19917;-87
2022/08/07 02:39:26;;;;;;;;;;;;;;;14.85;53.82;102475.25;5074479;28;20007;-87
2022/08/07 02:41:51;;;;;;;;;;;;;;;14.76;52.98;102471.06;5063388;28;19923;-87
2022/08/07 02:44:17;;;;;;;;;;;;;;;14.74;52.49;102470.28;5083299;28;19920;-87
2022/08/07 02:46:46;;;;;;;;;;;;;;;14.51;55.16;102463.88;5062339;28;19916;-87
2022/08/07 02:49:11;;;;;;;;;;;;;;;14.25;55.38;102472.59;5059557;28;19967;-87
2022/08/07 02:51:37;;;;;;;;;;;;;;;14.20;54.75;102474.50;5085232;28;20382;-87
2022/08/07 02:54:04;;;;;;;;;;;;;;;14.32;54.05;102462.66;5077104;28;19940;-88
2022/08/07 02:56:30;;;;;;;;;;;;;;;14.45;53.16;102461.34;5065090;28;19923;-87
2022/08/07 02:58:59;;;;;;;;;;;;;;;14.47;53.34;102466.63;5054430;28;19912;-88
2022/08/07 03:01:25;;;;;;;;;;;;;;;14.54;52.85;102463.75;5079864;28;20298;-87
2022/08/07 03:03:51;;;;;;;;;;;;;;;14.56;55.55;102458.41;5084259;28;19920;-88
2022/08/07 03:06:18;;;;;;;;;;;;;;;14.47;56.34;102461.31;5086878;28;20390;-87
2022/08/07 03:08:43;;;;;;;;;;;;;;;14.37;54.65;102465.16;5085221;28;19923;-87
2022/08/07 03:11:08;;;;;;;;;;;;;;;14.43;53.99;102464.97;5082223;28;19921;-87
2022/08/07 03:13:34;;;;;;;;;;;;;;;14.47;54.48;102458.66;5081544;28;20371;-87
2022/08/07 03:15:59;;;;;;;;;;;;;;;14.50;52.75;102456.81;5082783;28;19924;-88
2022/08/07 03:18:25;;;;;;;;;;;;;;;14.51;53.26;102460.34;5080554;28;19920;-87
2022/08/07 03:20:51;;;;;;;;;;;;;;;14.50;53.08;102453.25;5078896;28;20385;-87
2022/08/07 03:23:17;;;;;;;;;;;;;;;14.47;52.64;102456.00;5080651;28;19916;-87
2022/08/07 03:25:44;;;;;;;;;;;;;;;14.45;52.90;102460.47;5067795;28;20367;-87
2022/08/07 03:28:11;;;;;;;;;;;;;;;14.44;52.85;102458.72;5078902;28;20398;-87
2022/08/07 03:30:37;;;;;;;;;;;;;;;14.36;56.26;102460.75;5075390;28;19916;-87
2022/08/07 03:33:03;;;;;;;;;;;;;;;14.18;54.24;102457.75;5081621;28;20087;-87
2022/08/07 03:35:29;;;;;;;;;;;;;;;14.19;54.09;102466.59;5062270;28;19920;-87
2022/08/07 03:37:57;;;;;;;;;;;;;;;14.25;54.96;102461.94;5065320;28;20358;-87
2022/08/07 03:40:23;;;;;;;;;;;;;;;14.29;53.82;102458.28;5077241;28;19927;-87
2022/08/07 03:42:50;;;;;;;;;;;;;;;14.31;53.40;102455.56;5066693;28;19920;-88
2022/08/07 03:45:15;;;;;;;;;;;;;;;14.28;53.87;102455.69;5081553;28;19916;-88
2022/08/07 03:47:40;;;;;;;;;;;;;;;14.17;54.21;102455.97;5082441;28;20012;-87
2022/08/07 03:50:06;;;;;;;;;;;;;;;14.15;54.20;102457.81;5080472;28;19916;-87
2022/08/07 03:52:31;;;;;;;;;;;;;;;14.14;53.38;102460.53;5083448;28;19928;-87
2022/08/07 03:54:57;;;;;;;;;;;;;;;14.03;57.44;102467.03;5065501;28;20378;-87
2022/08/07 03:57:24;;;;;;;;;;;;;;;13.73;57.96;102466.09;5068896;28;20615;-87
2022/08/07 03:59:50;;;;;;;;;;;;;;;13.59;55.80;102465.59;5078677;28;19924;-87
2022/08/07 04:02:15;;;;;;;;;;;;;;;13.66;55.63;102468.94;5066262;28;20429;-87
2022/08/07 04:04:41;;;;;;;;;;;;;;;13.72;55.67;102471.47;5083868;28;19916;-87
2022/08/07 04:07:07;;;;;;;;;;;;;;;13.69;55.64;102475.06;5088274;28;19916;-88
2022/08/07 04:09:33;;;;;;;;;;;;;;;13.70;55.70;102470.59;5082518;28;20394;-87
2022/08/07 04:11:59;;;;;;;;;;;;;;;13.76;55.03;102481.97;5079511;28;19920;-88
2022/08/07 04:14:26;;;;;;;;;;;;;;;13.86;57.61;102479.94;5078375;28;19924;-87
2022/08/07 04:16:51;;;;;;;;;;;;;;;13.84;56.06;102475.56;5087133;28;20406;-87
2022/08/07 04:19:17;;;;;;;;;;;;;;;13.75;55.58;102474.88;5079896;28;19924;-87
2022/08/07 04:21:42;;;;;;;;;;;;;;;13.72;54.82;102480.31;5085132;28;19916;-87
2022/08/07 04:24:09;;;;;;;;;;;;;;;13.78;54.85;102477.47;5076069;28;19927;-87
2022/08/07 04:26:35;;;;;;;;;;;;;;;13.85;54.63;102479.94;5084230;28;19920;-87
2022/08/07 04:29:00;;;;;;;;;;;;;;;13.82;54.82;102486.25;5080347;28;20361;-87
2022/08/07 04:31:26;;;;;;;;;;;;;;;13.78;56.29;102482.78;5083949;28;20367;-87
2022/08/07 04:33:51;;;;;;;;;;;;;;;13.76;54.57;102489.06;5078241;28;20068;-87
2022/08/07 04:36:16;;;;;;;;;;;;;;;13.77;54.89;102490.81;5060510;28;20443;-87
2022/08/07 04:38:43;;;;;;;;;;;;;;;13.77;54.77;102485.50;5081729;28;19916;-87
2022/08/07 04:41:08;;;;;;;;;;;;;;;13.82;54.72;102488.91;5071839;28;19916;-87
2022/08/07 04:43:36;;;;;;;;;;;;;;;13.88;55.44;102482.53;5088904;28;20158;-87
2022/08/07 04:46:10;;;;;;;;;;;;;;;13.88;54.65;102479.88;5061150;28;19935;-87
2022/08/07 04:48:40;;;;;;;;;;;;;;;13.90;56.37;102478.94;5055298;28;20440;-87
2022/08/07 04:51:17;;;;;;;;;;;;;;;13.91;56.34;102485.13;5083626;28;19920;-87
2022/08/07 04:53:50;;;;;;;;;;;;;;;13.95;55.71;102477.00;5084714;28;20041;-87
2022/08/07 04:56:20;;;;;;;;;;;;;;;13.85;57.31;102498.56;5061192;28;19916;-87
2022/08/07 04:58:52;;;;;;;;;;;;;;;13.84;56.60;102491.50;5066656;28;20448;-87
2022/08/07 05:01:30;;;;;;;;;;;;;;;13.87;56.17;102499.41;5090492;28;19969;-87
2022/08/07 05:04:08;;;;;;;;;;;;;;;13.92;57.30;102493.03;5087697;28;20176;-87
2022/08/07 05:06:52;;;;;;;;;;;;;;;13.84;57.14;102489.72;5081865;28;19990;-87
2022/08/07 05:09:17;;;;;;;;;;;;;;;13.89;57.22;102495.78;5085588;28;19928;-87
2022/08/07 05:11:45;;;;;;;;;;;;;;;13.88;57.01;102501.13;5062349;28;20382;-87
2022/08/07 05:14:18;;;;;;;;;;;;;;;13.78;58.59;102505.84;5060824;28;19920;-87
2022/08/07 05:16:46;;;;;;;;;;;;;;;13.85;56.71;102501.22;5066679;28;19920;-87
2022/08/07 05:19:13;;;;;;;;;;;;;;;13.99;59.15;102501.75;5069085;28;19920;-86
2022/08/07 05:21:41;;;;;;;;;;;;;;;14.10;57.34;102502.28;5085803;28;19920;-87
2022/08/07 05:24:10;;;;;;;;;;;;;;;14.22;54.98;102504.63;5086748;28;20162;-87
2022/08/07 05:26:36;;;;;;;;;;;;;;;14.31;59.48;102506.13;5081548;28;19916;-87
2022/08/07 05:29:02;;;;;;;;;;;;;;;14.39;60.37;102511.22;5084301;28;19939;-87
2022/08/07 05:31:32;;;;;;;;;;;;;;;14.49;59.74;102502.94;5085067;28;19926;-87
2022/08/07 05:33:58;;;;;;;;;;;;;;;14.58;60.09;102509.78;5059432;28;19932;-87
2022/08/07 05:36:24;;;;;;;;;;;;;;;14.53;59.57;102503.72;5083095;28;19920;-87
2022/08/07 05:38:50;;;;;;;;;;;;;;;14.52;61.38;102504.66;5051108;28;19946;-87
2022/08/07 05:41:16;;;;;;;;;;;;;;;14.64;61.77;102508.72;5058336;28;20346;-87
2022/08/07 05:43:42;;;;;;;;;;;;;;;14.74;61.84;102515.53;5080167;28;20342;-86
2022/08/07 05:46:08;;;;;;;;;;;;;;;14.86;60.21;102509.81;5089322;28;20370;-87
2022/08/07 05:48:34;;;;;;;;;;;;;;;14.96;60.71;102508.59;5078293;28;19990;-87
2022/08/07 05:51:00;;;;;;;;;;;;;;;14.98;60.34;102505.91;5085749;28;20407;-87
2022/08/07 05:53:26;;;;;;;;;;;;;;;15.05;61.51;102510.09;5067776;28;20234;-87
2022/08/07 05:55:52;;;;;;;;;;;;;;;15.14;61.59;102508.94;5082205;28;20291;-87
2022/08/07 05:58:18;;;;;;;;;;;;;;;15.19;60.38;102515.84;5051691;28;19939;-87
2022/08/07 06:00:45;;;;;;;;;;;;;;;15.25;60.68;102512.13;5070748;28;20526;-87
2022/08/07 06:03:11;;;;;;;;;;;;;;;15.30;60.39;102515.50;5074419;28;20367;-87
2022/08/07 06:05:36;;;;;;;;;;;;;;;15.38;58.83;102512.56;5085758;28;19961;-87
2022/08/07 06:08:02;;;;;;;;;;;;;;;15.47;59.76;102520.25;5085359;28;19916;-87
2022/08/07 06:10:28;;;;;;;;;;;;;;;15.51;60.22;102517.44;5087134;28;19916;-87
2022/08/07 06:12:53;;;;;;;;;;;;;;;15.57;59.72;102519.91;5068519;28;20329;-87
2022/08/07 06:15:19;;;;;;;;;;;;;;;15.62;59.30;102519.75;5057262;28;20118;-87
2022/08/07 06:17:45;;;;;;;;;;;;;;;15.71;59.30;102522.09;5089280;28;19935;-87
2022/08/07 06:20:10;;;;;;;;;;;;;;;15.79;60.26;102522.72;5085708;28;19916;-87
2022/08/07 06:22:37;;;;;;;;;;;;;;;15.90;59.38;102527.69;5082055;28;20038;-87
2022/08/07 06:25:02;;;;;;;;;;;;;;;15.98;59.60;102530.06;5064717;28;19916;-86
2022/08/07 06:27:27;;;;;;;;;;;;;;;16.03;60.21;102528.97;5085420;28;20556;-87
2022/08/07 06:29:53;;;;;;;;;;;;;;;16.11;59.53;102530.50;5076268;28;19977;-86
2022/08/07 06:32:18;;;;;;;;;;;;;;;16.19;60.06;102528.44;5063312;28;20451;-87
2022/08/07 06:34:43;;;;;;;;;;;;;;;16.28;58.50;102522.75;5080566;28;19927;-86
2022/08/07 06:37:08;;;;;;;;;;;;;;;16.37;56.09;102524.19;5084520;28;19920;-86
2022/08/07 06:39:33;;;;;;;;;;;;;;;16.45;57.07;102525.66;5085833;28;19968;-86
2022/08/07 06:42:07;;;;;;;;;;;;;;;16.57;57.98;102519.84;5082258;28;19920;-86
2022/08/07 06:44:33;;;;;;;;;;;;;;;16.70;56.90;102524.72;5087015;28;19933;-86
2022/08/07 06:46:58;;;;;;;;;;;;;;;16.82;57.32;102525.13;5070312;28;19916;-86
2022/08/07 06:49:23;;;;;;;;;;;;;;;16.88;56.03;102517.81;5083342;28;20386;-86
2022/08/07 06:51:51;;;;;;;;;;;;;;;16.94;56.42;102521.13;5068208;28;19974;-86
2022/08/07 06:54:17;;;;;;;;;;;;;;;17.04;57.46;102514.47;5076329;28;19920;-86
2022/08/07 06:56:45;;;;;;;;;;;;;;;17.21;57.33;102511.13;5081736;28;19977;-86
2022/08/07 06:59:14;;;;;;;;;;;;;;;17.38;57.54;102507.72;5056619;28;20252;-87
2022/08/07 07:01:40;;;;;;;;;;;;;;;17.54;57.32;102508.81;5058300;28;19958;-86
2022/08/07 07:04:06;;;;;;;;;;;;;;;17.63;56.85;102504.03;5084493;28;19916;-86
2022/08/07 07:06:32;;;;;;;;;;;;;;;17.72;56.70;102501.81;5088229;28;19919;-86
2022/08/07 07:09:16;;;;;;;;;;;;;;;17.84;55.98;102495.94;5062707;28;19912;-86
2022/08/07 07:11:47;;;;;;;;;;;;;;;18.02;55.55;102506.78;5076439;28;19923;-87
2022/08/07 07:14:14;;;;;;;;;;;;;;;18.10;55.63;102501.94;5062474;28;19935;-86
2022/08/07 07:16:41;;;;;;;;;;;;;;;18.23;55.47;102519.19;5086164;28;20325;-86
2022/08/07 07:19:08;;;;;;;;;;;;;;;18.29;54.94;102518.03;5082477;28;19917;-86
2022/08/07 07:21:37;;;;;;;;;;;;;;;18.45;53.69;102513.69;5085546;28;19953;-86
2022/08/07 07:24:03;;;;;;;;;;;;;;;18.59;53.50;102510.38;5082438;28;20375;-86
2022/08/07 07:26:29;;;;;;;;;;;;;;;18.67;53.91;102515.38;5077054;28;20030;-87
2022/08/07 07:28:56;;;;;;;;;;;;;;;18.83;53.10;102511.91;5084633;28;19917;-87
2022/08/07 07:31:24;;;;;;;;;;;;;;;18.83;52.39;102511.91;5088318;28;20404;-87
2022/08/07 07:33:53;;;;;;;;;;;;;;;18.90;53.71;102504.47;5090238;28;20366;-87
2022/08/07 07:36:19;;;;;;;;;;;;;;;19.08;53.60;102505.38;5064735;28;20034;-87
2022/08/07 07:38:44;;;;;;;;;;;;;;;19.32;53.36;102505.97;5084537;28;20450;-87
2022/08/07 07:41:11;;;;;;;;;;;;;;;19.43;51.66;102492.00;5081380;28;20021;-87
2022/08/07 07:43:40;;;;;;;;;;;;;;;19.59;51.28;102498.31;5083678;28;19920;-86
2022/08/07 07:46:06;;;;;;;;;;;;;;;19.99;50.83;102493.56;5060152;28;19955;-86
2022/08/07 07:48:32;;;;;;;;;;;;;;;20.48;49.59;102493.63;5078976;28;20002;-87
2022/08/07 07:50:58;;;;;;;;;;;;;;;20.91;48.75;102492.06;5069509;28;19934;-86
2022/08/07 07:53:23;;;;;;;;;;;;;;;21.36;48.92;102491.22;5081758;28;19928;-87
2022/08/07 07:55:52;;;;;;;;;;;;;;;21.87;46.61;102486.34;5085139;28;19924;-87
2022/08/07 07:58:18;;;;;;;;;;;;;;;22.42;47.35;102490.09;5088563;28;19920;-87
2022/08/07 08:00:44;;;;;;;;;;;;;;;22.75;46.20;102481.66;5079255;28;19920;-87
2022/08/07 08:03:11;;;;;;;;;;;;;;;23.15;45.01;102484.44;5088041;28;20376;-87
2022/08/07 08:05:37;;;;;;;;;;;;;;;23.26;44.25;102486.41;5084126;28;19926;-87
2022/08/07 08:08:03;;;;;;;;;;;;;;;23.52;44.38;102480.09;5072352;28;19916;-87
2022/08/07 08:10:29;;;;;;;;;;;;;;;23.95;43.42;102478.97;5084370;28;19917;-88
2022/08/07 08:12:55;;;;;;;;;;;;;;;24.28;43.21;102487.38;5088647;28;20003;-88
2022/08/07 08:15:20;;;;;;;;;;;;;;;24.73;42.31;102486.88;5063974;28;19928;-88
2022/08/07 08:17:46;;;;;;;;;;;;;;;25.11;41.45;102486.72;5069943;28;19924;-88
2022/08/07 08:20:13;;;;;;;;;;;;;;;25.40;40.44;102485.34;5078711;28;19959;-88
2022/08/07 08:28:15;;;;;;;;;;;;;;;26.92;38.18;102486.81;5083631;28;19934;-88
2022/08/07 08:30:42;;;;;;;;;;;;;;;27.34;38.07;102486.91;5078836;28;20389;-88
2022/08/07 08:33:12;;;;;;;;;;;;;;;27.63;37.14;102495.25;5072023;28;19922;-88
2022/08/07 08:35:39;;;;;;;;;;;;;;;28.05;37.20;102490.69;5080281;28;20011;-88
2022/08/07 08:38:06;;;;;;;;;;;;;;;28.21;36.30;102499.22;5059560;28;20619;-88
2022/08/07 08:40:34;;;;;;;;;;;;;;;28.27;33.94;102494.22;5086317;28;19970;-88
2022/08/07 08:43:07;;;;;;;;;;;;;;;28.60;35.76;102491.19;5082509;28;19963;-88
2022/08/07 08:45:35;;;;;;;;;;;;;;;29.07;34.39;102496.03;5085257;28;19916;-88
2022/08/07 08:48:08;;;;;;;;;;;;;;;29.42;33.87;102501.75;5085315;28;19919;-88
2022/08/07 08:50:39;;;;;;;;;;;;;;;29.77;32.22;102499.44;5067817;28;19916;-88
2022/08/07 08:53:18;;;;;;;;;;;;;;;30.07;32.39;102496.47;5087577;28;19924;-88
2022/08/07 08:55:55;;;;;;;;;;;;;;;30.18;31.95;102490.88;5085972;28;20431;-88
2022/08/07 08:58:26;;;;;;;;;;;;;;;30.58;31.91;102486.03;5083189;28;19959;-88
2022/08/07 09:00:56;;;;;;;;;;;;;;;30.91;31.07;102488.16;5079045;28;19916;-88
2022/08/07 09:03:29;;;;;;;;;;;;;;;30.96;29.81;102488.56;5087382;28;19926;-88
2022/08/07 09:06:15;;;;;;;;;;;;;;;30.80;30.33;102493.00;5089879;28;19924;-88
2022/08/07 09:08:54;;;;;;;;;;;;;;;31.28;29.58;102492.63;5082923;28;20388;-88
2022/08/07 09:11:39;;;;;;;;;;;;;;;31.65;28.37;102486.09;5089955;28;19916;-88
2022/08/07 09:14:09;;;;;;;;;;;;;;;31.83;27.79;102486.91;5082481;28;19925;-88
2022/08/07 09:17:01;;;;;;;;;;;;;;;31.93;28.45;102482.19;5079034;28;20649;-88
2022/08/07 09:19:36;;;;;;;;;;;;;;;32.19;27.92;102489.50;5083196;28;19919;-88
2022/08/07 09:22:09;;;;;;;;;;;;;;;32.48;26.59;102480.94;5083929;28;19931;-88
2022/08/07 09:24:47;;;;;;;;;;;;;;;32.87;25.88;102483.06;5087846;28;20608;-89
2022/08/07 09:27:31;;;;;;;;;;;;;;;33.19;26.32;102485.03;5077217;28;20100;-88
2022/08/07 09:30:06;;;;;;;;;;;;;;;33.33;22.41;102476.09;5079547;28;19916;-88
2022/08/07 09:32:55;;;;;;;;;;;;;;;32.96;25.89;102466.50;5084616;28;20207;-88
2022/08/07 09:35:32;;;;;;;;;;;;;;;33.10;26.06;102473.19;5080979;28;19928;-88
2022/08/07 09:38:03;;;;;;;;;;;;;;;33.23;26.22;102470.81;5082163;28;19969;-88
2022/08/07 09:40:31;;;;;;;;;;;;;;;32.90;25.67;102471.78;5080473;28;19917;-89
2022/08/07 09:43:08;;;;;;;;;;;;;;;31.80;22.75;102476.25;5066279;28;19931;-88
2022/08/07 09:45:43;;;;;;;;;;;;;;;30.03;26.61;102464.16;5078076;28;19923;-88
2022/08/07 09:48:16;;;;;;;;;;;;;;;29.90;28.32;102473.56;5058342;28;19920;-88
2022/08/07 09:51:00;;;;;;;;;;;;;;;30.27;28.07;102466.41;5083420;28;19923;-87
2022/08/07 09:53:27;;;;;;;;;;;;;;;30.55;27.98;102461.81;5086442;28;19935;-88
2022/08/07 09:55:58;;;;;;;;;;;;;;;30.63;27.70;102456.41;5075533;28;19959;-87
2022/08/07 09:58:26;;;;;;;;;;;;;;;30.45;28.16;102451.81;5053577;28;19959;-88
2022/08/07 10:01:00;;;;;;;;;;;;;;;30.24;28.63;102445.75;5074154;28;19924;-88
2022/08/07 10:03:28;;;;;;;;;;;;;;;30.02;28.38;102446.09;5086496;28;19928;-88
2022/08/07 10:06:02;;;;;;;;;;;;;;;29.71;28.38;102438.19;5077711;28;20059;-88
2022/08/07 10:08:39;;;;;;;;;;;;;;;29.31;29.10;102435.66;5083568;28;19952;-87
2022/08/07 10:11:40;;;;;;;;;;;;;;;29.64;29.20;102427.00;5061159;28;19927;-87
2022/08/07 10:14:08;;;;;;;;;;;;;;;29.69;28.37;102426.56;5015342;28;20027;-87
2022/08/07 10:16:47;;;;;;;;;;;;;;;29.71;25.21;102427.28;5067829;28;19920;-87
2022/08/07 10:19:12;;;;;;;;;;;;;;;28.95;28.83;102429.94;5079253;28;20390;-87
2022/08/07 10:21:46;;;;;;;;;;;;;;;29.49;28.59;102426.59;5073920;28;19924;-87
2022/08/07 10:24:26;;;;;;;;;;;;;;;29.90;28.05;102423.63;5077526;28;19958;-88
2022/08/07 10:27:10;;;;;;;;;;;;;;;30.09;28.54;102423.53;5083965;28;19915;-87
2022/08/07 10:29:58;;;;;;;;;;;;;;;30.38;28.11;102431.59;5079255;28;20445;-87
2022/08/07 10:32:31;;;;;;;;;;;;;;;30.13;27.01;102432.28;5081251;28;19923;-87
2022/08/07 10:35:06;;;;;;;;;;;;;;;29.89;28.70;102425.50;5060641;28;20437;-87
2022/08/07 10:37:34;;;;;;;;;;;;;;;30.27;27.59;102428.22;5084730;28;19943;-87
2022/08/07 10:40:02;;;;;;;;;;;;;;;29.83;26.95;102420.63;5079816;28;19916;-88
2022/08/07 10:42:30;;;;;;;;;;;;;;;29.69;28.00;102418.38;5083801;28;20022;-88
2022/08/07 10:45:01;;;;;;;;;;;;;;;29.69;27.62;102421.97;5079572;28;19924;-88
2022/08/07 10:47:39;;;;;;;;;;;;;;;29.94;27.75;102412.28;5081848;28;19970;-87
2022/08/07 10:50:09;;;;;;;;;;;;;;;29.87;26.62;102402.09;5078608;28;21210;-88
2022/08/07 10:52:45;;;;;;;;;;;;;;;29.45;27.48;102402.50;5080291;28;19959;-87
2022/08/07 10:55:16;;;;;;;;;;;;;;;29.60;27.48;102408.38;5085990;28;19927;-87
2022/08/07 10:58:00;;;;;;;;;;;;;;;30.31;26.76;102408.66;5081661;28;20359;-87
2022/08/07 11:00:32;;;;;;;;;;;;;;;30.05;26.89;102400.28;5072699;28;20306;-87
2022/08/07 11:03:09;;;;;;;;;;;;;;;30.28;27.07;102399.91;5081147;28;19928;-87
2022/08/07 11:05:53;;;;;;;;;;;;;;;30.77;26.53;102395.84;5087542;28;20264;-87
2022/08/07 11:08:25;;;;;;;;;;;;;;;31.18;25.60;102393.44;5075283;28;20393;-87
2022/08/07 11:10:56;;;;;;;;;;;;;;;31.50;25.56;102393.72;5074157;28;19924;-87
2022/08/07 11:13:30;;;;;;;;;;;;;;;31.77;25.47;102380.88;5071603;28;20748;-87
2022/08/07 11:15:58;;;;;;;;;;;;;;;31.91;25.27;102377.53;5081127;28;19923;-88
2022/08/07 11:18:35;;;;;;;;;;;;;;;31.84;24.69;102381.94;5082754;28;20014;-88
2022/08/07 11:21:07;;;;;;;;;;;;;;;31.61;25.14;102370.69;5076094;28;19962;-88
2022/08/07 11:23:43;;;;;;;;;;;;;;;31.53;25.69;102369.81;5084469;28;20295;-88
2022/08/07 11:26:08;;;;;;;;;;;;;;;31.62;24.54;102371.56;5081115;28;19923;-88
2022/08/07 11:28:44;;;;;;;;;;;;;;;31.48;25.57;102368.41;5061908;28;19924;-89
2022/08/07 11:31:31;;;;;;;;;;;;;;;31.49;24.91;102367.41;5075119;28;19916;-86
2022/08/07 11:34:02;;;;;;;;;;;;;;;31.68;25.51;102359.97;5050640;28;20271;-86
2022/08/07 11:36:33;;;;;;;;;;;;;;;31.77;25.03;102359.00;5084186;28;19924;-87
2022/08/07 11:39:05;;;;;;;;;;;;;;;31.83;23.44;102357.50;5063345;28;20367;-87
2022/08/07 11:41:36;;;;;;;;;;;;;;;31.79;25.45;102354.19;5062612;28;20013;-87
2022/08/07 11:44:17;;;;;;;;;;;;;;;32.02;24.92;102349.03;5078768;28;19920;-87
2022/08/07 11:47:01;;;;;;;;;;;;;;;32.43;24.38;102357.38;5075136;28;19928;-88
2022/08/07 11:49:28;;;;;;;;;;;;;;;32.04;22.80;102354.31;5076390;28;19953;-87
2022/08/07 11:51:56;;;;;;;;;;;;;;;31.40;24.53;102348.38;5060983;28;19916;-87
2022/08/07 11:54:40;;;;;;;;;;;;;;;31.68;24.07;102349.03;5081563;28;19929;-87
2022/08/07 11:57:15;;;;;;;;;;;;;;;32.11;23.72;102349.91;5079605;28;20300;-87
2022/08/07 11:59:46;;;;;;;;;;;;;;;31.84;24.24;102349.13;5077000;28;19920;-87
2022/08/07 12:02:26;;;;;;;;;;;;;;;31.96;24.57;102352.44;5083192;28;20011;-87
2022/08/07 12:05:00;;;;;;;;;;;;;;;32.48;22.90;102346.75;5074678;28;19964;-87
2022/08/07 12:07:31;;;;;;;;;;;;;;;32.78;23.78;102342.47;5081771;28;19923;-87
2022/08/07 12:10:02;;;;;;;;;;;;;;;32.33;22.79;102340.22;5064661;28;20446;-87
2022/08/07 12:12:34;;;;;;;;;;;;;;;31.11;23.94;102332.28;5084438;28;19922;-87
2022/08/07 12:15:04;;;;;;;;;;;;;;;31.15;24.83;102336.38;5066474;28;19932;-87
2022/08/07 12:17:38;;;;;;;;;;;;;;;31.52;24.41;102340.72;5064839;28;19961;-87
2022/08/07 12:20:04;;;;;;;;;;;;;;;31.34;24.98;102344.41;5080620;28;19916;-88
2022/08/07 12:23:04;;;;;;;;;;;;;;;31.19;25.05;102349.56;5083710;28;20346;-87
2022/08/07 12:25:55;;;;;;;;;;;;;;;30.85;25.41;102334.97;5008533;28;19917;-87
2022/08/07 12:28:43;;;;;;;;;;;;;;;31.02;25.21;102336.81;5077404;28;19924;-86
2022/08/07 12:31:21;;;;;;;;;;;;;;;31.61;24.08;102334.28;5047741;28;20396;-87
2022/08/07 12:33:47;;;;;;;;;;;;;;;31.91;23.91;102338.41;5081526;28;20387;-86
2022/08/07 12:36:13;;;;;;;;;;;;;;;31.97;23.17;102324.91;5084163;28;20321;-86
2022/08/07 12:38:40;;;;;;;;;;;;;;;32.03;23.50;102323.38;5081396;28;20003;-87
2022/08/07 12:41:06;;;;;;;;;;;;;;;31.99;21.54;102319.28;5085848;28;20453;-87
2022/08/07 12:43:33;;;;;;;;;;;;;;;31.42;22.76;102317.09;5089388;28;20014;-87
2022/08/07 12:46:05;;;;;;;;;;;;;;;31.53;23.67;102313.25;5082262;28;19994;-87
2022/08/07 12:48:50;;;;;;;;;;;;;;;31.93;23.23;102312.56;5082779;28;19920;-87
2022/08/07 12:51:17;;;;;;;;;;;;;;;32.20;22.86;102319.66;5028930;28;19932;-87